Main page
Satellite images 15-day forecastsClimateMarine weather Cyclones Lightning AirportsFAQ Newsletter About
Weather : Europe Africa North America South America Asia Australia-Oceania Others
Languages Contact

Maputo, Mozambique

Mavalane

latitude: 25-55S, longitude: 032-34E, elevation: 39 m


METAR: FQMA 231200Z 10015KT CAVOK 27/14 Q1021 NOSIG
TAF: FQMA 231000Z 2312/2418 07010KT CAVOK BECMG 2318/2320 11010KT BECMG 2400/2402 03010KT BECMG 2412/2414 07010KT TX30/2312ZTN18/2404Z

Time: 14:21 (12:21 UTC)

Current weather observation

The report was made 21 minutes ago, at 12:00 UTC  
Wind 15 kt from the East
Temperature 27°C
Humidity 45%
Pressure 1021 hPa
Visibility 10 km or more
no clouds below 1500 m and no cumulonimbus

Change units

Forecast

The report was made 02 hours and 21 minutes ago, at 10:00 UTC  
Forecast valid from 23 at 12 UTC to 24 at 18 UTC
Wind 10 kt from the East/Northeast
Visibility 10 km or more
no clouds below 1500 m and no cumulonimbus
Becoming
from 23 at 18 UTC to 23 at 20 UTC
Wind 10 kt from the East/Southeast
Becoming
from 24 at 00 UTC to 24 at 02 UTC
Wind 10 kt from the North/Northeast
Becoming
from 24 at 12 UTC to 24 at 14 UTC
Wind 10 kt from the East/Northeast
The information on this site is subject to a disclaimer
Weather : Europe Africa North America South America Asia Australia-Oceania Others
Satellite images 15-day forecastsClimateMarine weather Cyclones Lightning AirportsFAQ Languages Contact Newsletter About